TAF Text Data
IDs:
Format:
Raw Decoded Include METAR

Data at: 1938 UTC 08 Feb 2023

TAF for:KAVL (Asheville Muni, NC, US) issued at 1720 UTC 08 Feb 2023
Text:KAVL 081720Z 0818/0918 17005KT P6SM OVC045
Forecast period:1800 UTC 08 February 2023 to 1800 UTC 09 February 2023
Forecast type:FROM: standard forecast or significant change
Winds:from the S (170 degrees) at 6 MPH (5 knots; 2.6 m/s)
Visibility:6 or more sm (10+ km)
Ceiling:4500 feet AGL
Clouds: overcast cloud deck at 4500 feet AGL
Text:TEMPO 0913/0917 6SM -SHRA
Forecast period:1300 to 1700 UTC 09 February 2023
Forecast type:TEMPORARY: The following changes expected for less than half the time period
Visibility: 6 sm ( 10 km)
Clouds:missing
Weather:-SHRA (light rain showers)